TimeCST,TemperatureF,Dew PointF,Humidity,Sea Level PressureIn,VisibilityMPH,Wind Direction,Wind SpeedMPH,Gust SpeedMPH,PrecipitationIn,Events,Conditions,WindDirDegrees,DateUTC
12:15 AM,30.7,25.2,80,30.23,10.0,SSE,6.9,-,N/A,,Clear,160,2012-12-13 06:15:00
12:35 AM,30.9,25.0,79,30.22,10.0,SSE,9.2,-,N/A,,Clear,150,2012-12-13 06:35:00
12:55 AM,30.4,24.8,80,30.22,10.0,SSE,8.1,-,N/A,,Clear,160,2012-12-13 06:55:00
1:15 AM,30.0,24.4,80,30.22,10.0,SSE,8.1,-,N/A,,Clear,160,2012-12-13 07:15:00
1:35 AM,30.0,24.4,80,30.22,10.0,SSE,8.1,-,N/A,,Clear,160,2012-12-13 07:35:00
1:55 AM,29.3,24.1,81,30.23,10.0,SSE,5.8,-,N/A,,Clear,160,2012-12-13 07:55:00
2:15 AM,30.6,24.1,77,30.23,10.0,SE,6.9,-,N/A,,Clear,140,2012-12-13 08:15:00
2:35 AM,30.7,23.9,76,30.23,10.0,SSE,8.1,-,N/A,,Clear,150,2012-12-13 08:35:00
2:55 AM,30.6,23.9,76,30.23,10.0,SE,6.9,-,N/A,,Clear,140,2012-12-13 08:55:00
3:15 AM,30.2,23.7,77,30.23,10.0,SSE,8.1,-,N/A,,Clear,150,2012-12-13 09:15:00
3:35 AM,30.0,23.4,76,30.23,10.0,SE,6.9,-,N/A,,Clear,140,2012-12-13 09:35:00
3:55 AM,29.1,23.0,78,30.22,10.0,SSE,8.1,-,N/A,,Clear,150,2012-12-13 09:55:00
4:15 AM,28.8,23.0,79,30.22,10.0,SSE,4.6,-,N/A,,Clear,150,2012-12-13 10:15:00
4:35 AM,30.4,23.5,76,30.22,10.0,South,8.1,-,N/A,,Clear,170,2012-12-13 10:35:00
4:55 AM,31.1,23.5,74,30.22,10.0,South,5.8,-,N/A,,Clear,170,2012-12-13 10:55:00
5:15 AM,31.1,23.5,74,30.21,10.0,South,6.9,-,N/A,,Clear,170,2012-12-13 11:15:00
5:35 AM,30.9,23.4,74,30.21,10.0,South,9.2,-,N/A,,Clear,170,2012-12-13 11:35:00
5:55 AM,30.7,23.0,73,30.21,10.0,South,9.2,-,N/A,,Clear,170,2012-12-13 11:55:00
6:15 AM,30.6,23.0,74,30.20,10.0,South,11.5,17.3,N/A,,Clear,170,2012-12-13 12:15:00
6:35 AM,30.7,23.0,73,30.20,10.0,South,9.2,-,N/A,,Clear,170,2012-12-13 12:35:00
6:55 AM,30.2,23.0,75,30.20,10.0,SSE,10.4,-,N/A,,Clear,160,2012-12-13 12:55:00
7:15 AM,30.0,23.0,75,30.20,10.0,SSE,10.4,-,N/A,,Clear,160,2012-12-13 13:15:00
7:35 AM,30.2,23.0,75,30.20,10.0,SSE,11.5,-,N/A,,Clear,160,2012-12-13 13:35:00
7:55 AM,30.9,23.4,74,30.20,10.0,South,10.4,-,N/A,,Clear,170,2012-12-13 13:55:00
8:15 AM,32.0,23.9,72,30.20,10.0,SSE,10.4,-,N/A,,Clear,160,2012-12-13 14:15:00
8:35 AM,33.4,24.3,69,30.20,10.0,South,11.5,-,N/A,,Clear,170,2012-12-13 14:35:00
8:55 AM,35.4,24.6,65,30.19,10.0,South,15.0,23.0,N/A,,Clear,170,2012-12-13 14:55:00
9:15 AM,37.4,24.3,59,30.19,10.0,South,12.7,21.9,N/A,,Clear,170,2012-12-13 15:15:00
9:35 AM,38.7,24.3,56,30.19,10.0,South,11.5,23.0,N/A,,Clear,170,2012-12-13 15:35:00
9:55 AM,39.6,23.9,54,30.19,10.0,South,13.8,-,N/A,,Clear,180,2012-12-13 15:55:00
10:15 AM,41.0,24.3,51,30.19,10.0,South,15.0,23.0,N/A,,Clear,180,2012-12-13 16:15:00
10:35 AM,41.9,24.3,50,30.19,10.0,South,15.0,23.0,N/A,,Clear,180,2012-12-13 16:35:00
10:55 AM,42.3,24.1,49,30.18,10.0,South,17.3,23.0,N/A,,Clear,190,2012-12-13 16:55:00
11:15 AM,43.2,24.6,48,30.16,10.0,South,17.3,21.9,N/A,,Clear,190,2012-12-13 17:15:00
11:35 AM,44.8,25.5,47,30.16,10.0,South,16.1,20.7,N/A,,Clear,190,2012-12-13 17:35:00
11:55 AM,46.2,25.3,44,30.15,10.0,South,15.0,20.7,N/A,,Clear,190,2012-12-13 17:55:00
12:15 PM,47.7,23.7,39,30.14,10.0,South,17.3,24.2,N/A,,Clear,190,2012-12-13 18:15:00
12:35 PM,48.4,24.3,39,30.14,10.0,SSW,19.6,23.0,N/A,,Clear,200,2012-12-13 18:35:00
12:55 PM,48.6,24.6,39,30.12,10.0,South,15.0,21.9,N/A,,Clear,180,2012-12-13 18:55:00
1:15 PM,48.7,25.7,41,30.11,10.0,South,13.8,20.7,N/A,,Clear,180,2012-12-13 19:15:00
1:35 PM,49.5,26.1,40,30.10,10.0,South,15.0,18.4,N/A,,Clear,190,2012-12-13 19:35:00
1:55 PM,50.0,24.4,37,30.10,10.0,SSW,15.0,24.2,N/A,,Clear,210,2012-12-13 19:55:00
2:15 PM,50.0,24.1,36,30.10,10.0,SSW,13.8,-,N/A,,Clear,210,2012-12-13 20:15:00
2:35 PM,50.0,24.6,37,30.09,10.0,SSW,18.4,24.2,N/A,,Clear,210,2012-12-13 20:35:00
2:55 PM,49.6,24.6,38,30.09,10.0,SSW,17.3,24.2,N/A,,Clear,210,2012-12-13 20:55:00
3:15 PM,49.1,24.8,39,30.09,10.0,SSW,15.0,-,N/A,,Clear,210,2012-12-13 21:15:00
3:35 PM,48.2,26.1,42,30.10,10.0,SSW,11.5,-,N/A,,Clear,210,2012-12-13 21:35:00
3:55 PM,46.6,26.4,45,30.10,10.0,SSW,11.5,-,N/A,,Clear,200,2012-12-13 21:55:00
4:15 PM,44.6,26.8,50,30.09,10.0,SSW,9.2,-,N/A,,Clear,200,2012-12-13 22:15:00
4:35 PM,41.4,27.1,57,30.10,10.0,South,8.1,-,N/A,,Clear,190,2012-12-13 22:35:00
5:35 PM,41.0,26.6,57,30.10,10.0,South,6.9,-,N/A,,Clear,180,2012-12-13 23:35:00
5:55 PM,39.2,26.6,61,30.11,10.0,South,6.9,-,N/A,,Clear,180,2012-12-13 23:55:00
6:15 PM,38.3,27.0,64,30.11,10.0,South,4.6,-,N/A,,Clear,180,2012-12-14 00:15:00
6:55 PM,37.4,26.6,65,30.12,10.0,Calm,Calm,-,N/A,,Clear,0,2012-12-14 00:55:00
7:15 PM,34.2,26.6,74,30.13,10.0,Calm,Calm,-,N/A,,Clear,0,2012-12-14 01:15:00
7:35 PM,33.1,26.4,77,30.12,10.0,Calm,Calm,-,N/A,,Clear,0,2012-12-14 01:35:00
7:55 PM,32.7,26.1,76,30.13,10.0,Calm,Calm,-,N/A,,Clear,0,2012-12-14 01:55:00
8:15 PM,32.2,26.8,80,30.13,10.0,South,3.5,-,N/A,,Clear,170,2012-12-14 02:15:00
8:35 PM,32.0,26.6,80,30.13,10.0,South,3.5,-,N/A,,Clear,170,2012-12-14 02:35:00
8:55 PM,32.0,26.1,79,30.13,10.0,South,3.5,-,N/A,,Clear,170,2012-12-14 02:55:00
9:15 PM,31.8,25.7,78,30.14,10.0,South,3.5,-,N/A,,Clear,170,2012-12-14 03:15:00
9:35 PM,31.5,25.7,79,30.13,10.0,South,4.6,-,N/A,,Clear,170,2012-12-14 03:35:00
9:55 PM,32.5,26.2,78,30.13,10.0,South,3.5,-,N/A,,Clear,170,2012-12-14 03:55:00
10:15 PM,33.3,26.2,75,30.14,10.0,SSE,4.6,-,N/A,,Clear,160,2012-12-14 04:15:00
10:35 PM,32.4,25.7,76,30.14,10.0,SSE,3.5,-,N/A,,Clear,160,2012-12-14 04:35:00
10:55 PM,32.2,25.9,78,30.14,10.0,SSE,4.6,-,N/A,,Clear,150,2012-12-14 04:55:00
11:15 PM,32.0,26.1,79,30.14,10.0,SSE,4.6,-,N/A,,Clear,160,2012-12-14 05:15:00
11:35 PM,32.4,25.9,77,30.14,10.0,SSE,3.5,-,N/A,,Clear,150,2012-12-14 05:35:00
11:55 PM,32.0,26.1,79,30.14,10.0,Calm,Calm,-,N/A,,Clear,0,2012-12-14 05:55:00